createdAt,value
2022-08-07T00:00:03.532Z,2.23
2022-08-07T00:02:36.200Z,2.47
2022-08-07T00:03:39.161Z,2.35
2022-08-07T00:05:19.310Z,2.40
2022-08-07T00:06:52.274Z,1.90
2022-08-07T00:08:27.239Z,2.00
2022-08-07T00:10:26.558Z,2.53
2022-08-07T00:11:53.857Z,2.08
2022-08-07T00:13:29.195Z,2.53
2022-08-07T00:15:01.370Z,2.83
2022-08-07T00:16:33.298Z,2.87
2022-08-07T00:18:19.208Z,2.85
2022-08-07T00:20:01.379Z,2.53
2022-08-07T00:21:56.269Z,2.58
2022-08-07T00:23:34.762Z,4.70
2022-08-07T00:25:16.486Z,3.55
2022-08-07T00:27:06.015Z,2.83
2022-08-07T00:28:45.700Z,3.10
2022-08-07T00:30:31.805Z,3.50
2022-08-07T00:32:04.124Z,2.67
2022-08-07T00:33:41.894Z,2.83
2022-08-07T00:35:13.813Z,2.72
2022-08-07T00:36:48.670Z,2.60
2022-08-07T00:38:31.600Z,3.38
2022-08-07T00:40:04.258Z,2.80
2022-08-07T00:41:37.419Z,2.70
2022-08-07T00:43:59.520Z,2.83
2022-08-07T00:45:17.638Z,2.53
2022-08-07T00:46:49.953Z,2.60
2022-08-07T00:48:25.099Z,2.05
2022-08-07T00:50:19.185Z,2.67
2022-08-07T00:51:58.732Z,2.63
2022-08-07T00:53:38.808Z,2.17
2022-08-07T00:55:25.601Z,2.13
2022-08-07T00:57:14.728Z,2.55
2022-08-07T00:58:49.862Z,2.50
2022-08-07T01:00:22.475Z,1.92
2022-08-07T01:01:56.694Z,2.75
2022-08-07T01:03:55.707Z,2.40
2022-08-07T01:05:24.616Z,2.75
2022-08-07T01:06:56.768Z,2.58
2022-08-07T01:08:28.732Z,2.53
2022-08-07T01:10:06.038Z,2.55
2022-08-07T01:12:23.616Z,2.90
2022-08-07T01:13:46.737Z,2.53
2022-08-07T01:15:35.646Z,2.65
2022-08-07T01:17:20.548Z,2.55
2022-08-07T01:18:52.606Z,2.75
2022-08-07T01:20:33.656Z,2.35
2022-08-07T01:22:16.225Z,2.58
2022-08-07T01:23:57.322Z,3.10
2022-08-07T01:25:53.854Z,2.65
2022-08-07T01:27:24.972Z,2.47
2022-08-07T01:29:05.599Z,2.25
2022-08-07T01:30:41.267Z,3.03
2022-08-07T01:32:15.159Z,3.17
2022-08-07T01:33:57.387Z,3.00
2022-08-07T01:37:26.129Z,3.05
2022-08-07T01:39:10.144Z,2.67
2022-08-07T01:40:52.675Z,2.90
2022-08-07T01:42:38.077Z,2.50
2022-08-07T01:44:35.941Z,2.78
2022-08-07T01:46:12.141Z,2.50
2022-08-07T01:48:18.601Z,2.75
2022-08-07T01:52:02.735Z,2.58
2022-08-07T01:54:11.600Z,2.65
2022-08-07T01:56:03.125Z,2.80
2022-08-07T01:58:01.204Z,2.42
2022-08-07T01:59:49.824Z,2.35
2022-08-07T02:02:01.588Z,2.35
2022-08-07T02:03:54.519Z,2.90
2022-08-07T02:05:47.475Z,2.25
2022-08-07T02:07:45.067Z,2.92
2022-08-07T02:09:52.343Z,2.60
2022-08-07T02:11:30.806Z,3.13
2022-08-07T02:13:15.005Z,2.40
2022-08-07T02:14:57.637Z,2.80
2022-08-07T02:16:37.841Z,2.88
2022-08-07T02:18:11.836Z,2.45
2022-08-07T02:20:05.511Z,2.50
2022-08-07T02:21:56.568Z,2.35
2022-08-07T02:23:35.912Z,2.97
2022-08-07T02:25:17.171Z,3.33
2022-08-07T02:27:01.261Z,2.65
2022-08-07T02:28:36.838Z,2.95
2022-08-07T02:30:14.467Z,2.75
2022-08-07T02:31:48.560Z,2.63
2022-08-07T02:33:20.971Z,2.83
2022-08-07T02:34:53.997Z,2.80
2022-08-07T02:36:32.705Z,3.00
2022-08-07T02:38:11.129Z,3.33
2022-08-07T02:40:11.868Z,2.90
2022-08-07T02:41:37.583Z,2.80
2022-08-07T02:43:11.534Z,3.28
2022-08-07T02:46:26.778Z,2.95
2022-08-07T02:48:01.978Z,3.08
2022-08-07T02:49:58.092Z,3.65
2022-08-07T02:51:49.631Z,3.13
2022-08-07T02:53:30.258Z,3.53
2022-08-07T02:55:27.409Z,3.40
2022-08-07T02:57:02.356Z,3.30
2022-08-07T02:58:47.267Z,3.03
2022-08-07T03:00:20.739Z,3.08
2022-08-07T03:03:42.153Z,3.08
2022-08-07T03:05:25.414Z,3.28
2022-08-07T03:06:59.865Z,3.33
2022-08-07T03:08:39.453Z,2.90
2022-08-07T03:10:12.080Z,4.25
2022-08-07T03:11:52.476Z,3.50
2022-08-07T03:13:38.919Z,3.72
2022-08-07T03:15:47.397Z,3.10
2022-08-07T03:17:13.550Z,3.67
2022-08-07T03:21:52.610Z,3.20
2022-08-07T03:23:34.127Z,3.60
2022-08-07T03:25:21.321Z,3.50
2022-08-07T03:26:59.060Z,3.63
2022-08-07T03:28:39.434Z,3.53
2022-08-07T03:30:13.261Z,3.63
2022-08-07T03:31:49.892Z,3.25
2022-08-07T03:33:24.164Z,3.67
2022-08-07T03:35:17.711Z,3.58
2022-08-07T03:36:53.266Z,3.90
2022-08-07T03:38:29.471Z,3.42
2022-08-07T03:40:15.458Z,4.07
2022-08-07T03:41:50.939Z,3.95
2022-08-07T03:43:26.653Z,4.45
2022-08-07T03:45:05.222Z,3.97
2022-08-07T03:47:10.561Z,4.07
2022-08-07T03:48:32.731Z,4.22
2022-08-07T03:50:04.988Z,3.90
2022-08-07T03:51:47.927Z,4.05
2022-08-07T03:54:05.741Z,3.88
2022-08-07T03:58:32.892Z,3.25
2022-08-07T03:59:13.341Z,4.30
2022-08-07T04:00:56.994Z,3.00
2022-08-07T04:02:31.977Z,3.20
2022-08-07T04:04:04.861Z,3.47
2022-08-07T04:05:50.687Z,3.63
2022-08-07T04:07:41.711Z,4.00
2022-08-07T04:09:16.291Z,3.92
2022-08-07T04:10:54.742Z,4.22
2022-08-07T04:12:47.632Z,3.80
2022-08-07T04:14:38.625Z,3.90
2022-08-07T04:16:13.416Z,3.80
2022-08-07T04:18:31.434Z,3.80
2022-08-07T04:19:52.440Z,4.10
2022-08-07T04:21:31.915Z,4.05
2022-08-07T04:23:06.444Z,3.88
2022-08-07T04:24:43.403Z,4.20
2022-08-07T04:26:21.671Z,4.20
2022-08-07T04:27:59.478Z,4.40
2022-08-07T04:29:48.662Z,3.85
2022-08-07T04:32:02.661Z,3.92
2022-08-07T04:33:19.152Z,3.78
2022-08-07T04:34:57.360Z,4.75
2022-08-07T04:36:29.896Z,4.68
2022-08-07T04:38:08.796Z,4.50
2022-08-07T04:39:47.930Z,4.78
2022-08-07T04:41:22.221Z,4.25
2022-08-07T04:43:01.846Z,4.53
2022-08-07T04:44:54.413Z,4.38
2022-08-07T04:47:03.931Z,5.18
2022-08-07T04:48:52.587Z,4.85
2022-08-07T04:50:52.920Z,4.85
2022-08-07T04:52:27.895Z,5.82
2022-08-07T04:54:17.765Z,6.05
2022-08-07T04:58:16.378Z,5.43
2022-08-07T04:59:15.938Z,5.80
2022-08-07T05:00:48.896Z,4.53
2022-08-07T05:02:24.991Z,5.35
2022-08-07T05:04:07.401Z,4.97
2022-08-07T05:05:57.310Z,5.30
2022-08-07T05:07:48.346Z,6.10
2022-08-07T05:09:45.505Z,7.63
2022-08-07T05:11:57.455Z,7.15
2022-08-07T05:14:51.993Z,6.15
2022-08-07T05:15:31.309Z,6.68
2022-08-07T05:17:11.722Z,5.95
2022-08-07T05:18:48.712Z,5.93
2022-08-07T05:20:27.223Z,6.18
2022-08-07T05:22:04.593Z,5.60
2022-08-07T05:23:42.471Z,6.93
2022-08-07T05:25:26.162Z,5.68
2022-08-07T05:27:14.513Z,6.25
2022-08-07T05:29:04.636Z,6.63
2022-08-07T05:30:39.837Z,5.68
2022-08-07T05:32:14.846Z,6.63
2022-08-07T05:34:01.051Z,5.70
2022-08-07T05:35:42.056Z,5.90
2022-08-07T05:37:25.357Z,5.90
2022-08-07T05:40:05.547Z,5.35
2022-08-07T05:41:11.955Z,5.75
2022-08-07T05:42:55.878Z,6.00
2022-08-07T05:44:31.111Z,6.75
2022-08-07T05:46:06.217Z,5.80
2022-08-07T05:48:02.158Z,6.00
2022-08-07T05:49:40.650Z,6.00
2022-08-07T05:51:14.582Z,5.60
2022-08-07T05:52:48.109Z,6.75
2022-08-07T05:54:30.845Z,6.37
2022-08-07T05:56:14.247Z,5.72
2022-08-07T05:57:54.416Z,6.22
2022-08-07T05:59:28.074Z,5.78
2022-08-07T06:01:10.504Z,6.05
2022-08-07T06:02:48.902Z,5.70
2022-08-07T06:04:29.975Z,5.53
2022-08-07T06:06:02.394Z,5.85
2022-08-07T06:08:14.171Z,6.00
2022-08-07T06:11:20.826Z,5.38
2022-08-07T06:12:55.926Z,5.82
2022-08-07T06:14:28.684Z,5.65
2022-08-07T06:16:07.948Z,5.75
2022-08-07T06:17:53.813Z,5.95
2022-08-07T06:19:52.097Z,5.30
2022-08-07T06:22:15.027Z,5.85
2022-08-07T06:23:46.268Z,5.78
2022-08-07T06:25:10.164Z,5.68
2022-08-07T06:26:42.990Z,5.72
2022-08-07T06:30:00.974Z,4.85
2022-08-07T06:31:47.335Z,5.63
2022-08-07T06:33:26.270Z,5.85
2022-08-07T06:35:00.119Z,5.20
2022-08-07T06:36:35.523Z,6.10
2022-08-07T06:38:19.880Z,5.20
2022-08-07T06:40:17.801Z,5.72
2022-08-07T06:42:00.941Z,5.65
2022-08-07T06:44:06.647Z,4.93
2022-08-07T06:45:44.275Z,5.55
2022-08-07T06:47:20.945Z,5.15
2022-08-07T06:48:53.868Z,5.53
2022-08-07T06:50:30.536Z,5.10
2022-08-07T06:52:07.424Z,5.22
2022-08-07T06:55:29.757Z,4.65
2022-08-07T06:55:59.877Z,5.25
2022-08-07T06:57:43.590Z,4.72
2022-08-07T07:00:15.034Z,5.40
2022-08-07T07:01:18.787Z,4.43
2022-08-07T07:02:54.491Z,4.60
2022-08-07T07:04:33.275Z,4.68
2022-08-07T07:06:11.215Z,4.78
2022-08-07T07:07:59.047Z,4.50
2022-08-07T07:09:36.214Z,5.05
2022-08-07T07:11:14.460Z,5.10
2022-08-07T07:13:16.885Z,4.88
2022-08-07T07:15:24.089Z,4.70
2022-08-07T07:17:00.452Z,4.60
2022-08-07T07:18:48.179Z,5.07
2022-08-07T07:20:24.476Z,5.22
2022-08-07T07:22:04.939Z,4.80
2022-08-07T07:24:09.835Z,4.53
2022-08-07T07:26:34.001Z,4.93
2022-08-07T07:27:35.630Z,4.00
2022-08-07T07:29:39.553Z,5.03
2022-08-07T07:31:44.179Z,4.65
2022-08-07T07:33:17.847Z,4.95
2022-08-07T07:34:57.705Z,5.20
2022-08-07T07:36:32.402Z,4.97
2022-08-07T07:38:06.454Z,5.47
2022-08-07T07:39:52.423Z,5.75
2022-08-07T07:41:30.954Z,5.03
2022-08-07T07:43:27.772Z,4.82
2022-08-07T07:46:55.231Z,5.28
2022-08-07T07:48:34.988Z,4.43
2022-08-07T07:50:33.158Z,4.47
2022-08-07T07:52:03.313Z,4.13
2022-08-07T07:53:52.420Z,3.88
2022-08-07T07:55:27.377Z,2.78
2022-08-07T07:57:11.569Z,2.80
2022-08-07T07:58:44.038Z,2.92
2022-08-07T08:00:28.836Z,2.83
2022-08-07T08:02:10.682Z,2.45
2022-08-07T08:04:10.574Z,2.80
2022-08-07T08:05:50.438Z,2.55
2022-08-07T08:07:35.506Z,1.95
2022-08-07T08:09:17.166Z,1.70
2022-08-07T08:10:49.426Z,2.17
2022-08-07T08:12:51.289Z,2.42
2022-08-07T08:14:13.679Z,2.60
2022-08-07T08:15:58.095Z,2.40
2022-08-07T08:17:57.755Z,2.10
2022-08-07T08:20:18.311Z,2.63
2022-08-07T08:21:55.749Z,2.22
2022-08-07T08:23:52.245Z,2.00
2022-08-07T08:25:49.448Z,2.40
2022-08-07T08:27:37.425Z,1.40
2022-08-07T08:29:10.874Z,1.65
2022-08-07T08:30:51.101Z,3.17
2022-08-07T08:32:53.821Z,2.03
2022-08-07T08:34:26.985Z,2.00
2022-08-07T08:35:59.959Z,2.08
2022-08-07T08:38:00.507Z,1.52
2022-08-07T08:39:39.239Z,1.50
2022-08-07T08:42:04.003Z,1.87
2022-08-07T08:43:55.814Z,1.38
2022-08-07T08:45:59.279Z,1.23
2022-08-07T08:47:52.871Z,1.23
2022-08-07T08:49:46.877Z,1.00
2022-08-07T08:52:13.139Z,1.02
2022-08-07T08:53:35.883Z,0.90
2022-08-07T08:55:54.532Z,0.70
2022-08-07T08:57:38.103Z,1.25
2022-08-07T08:59:42.351Z,1.20
2022-08-07T09:01:40.166Z,0.50
2022-08-07T09:03:47.502Z,0.55
2022-08-07T09:05:36.674Z,0.50
2022-08-07T09:07:34.201Z,0.77
2022-08-07T09:09:57.670Z,0.50
2022-08-07T09:12:02.806Z,0.70
2022-08-07T09:13:53.940Z,0.73
2022-08-07T09:16:22.309Z,0.60
2022-08-07T09:18:01.497Z,0.80
2022-08-07T09:20:35.228Z,0.68
2022-08-07T09:24:27.454Z,0.63
2022-08-07T09:24:32.816Z,0.80
2022-08-07T09:26:34.010Z,0.68
2022-08-07T09:30:01.575Z,0.50
2022-08-07T09:30:08.969Z,0.73
2022-08-07T09:32:16.246Z,0.55
2022-08-07T09:34:22.941Z,0.60
2022-08-07T09:36:07.782Z,0.70
2022-08-07T09:37:53.465Z,0.90
2022-08-07T09:39:54.115Z,0.70
2022-08-07T09:41:58.658Z,0.70
2022-08-07T09:44:20.053Z,0.68
2022-08-07T09:47:52.677Z,0.57
2022-08-07T09:48:20.598Z,0.75
2022-08-07T09:50:19.005Z,0.63
2022-08-07T09:52:16.158Z,0.63
2022-08-07T09:54:03.411Z,0.70
2022-08-07T09:56:03.913Z,0.90
2022-08-07T09:58:05.043Z,0.60
2022-08-07T10:00:00.955Z,0.70
2022-08-07T10:02:14.134Z,0.60
2022-08-07T10:04:04.974Z,0.90
2022-08-07T10:06:00.120Z,0.73
2022-08-07T10:08:01.201Z,0.50
2022-08-07T10:10:00.239Z,0.55
2022-08-07T10:12:16.670Z,0.65
2022-08-07T10:14:00.457Z,0.60
2022-08-07T10:16:05.982Z,0.73
2022-08-07T10:18:01.849Z,0.63
2022-08-07T10:20:00.538Z,0.52
2022-08-07T10:22:12.110Z,0.60
2022-08-07T10:24:08.396Z,0.50
2022-08-07T10:25:55.924Z,0.63
2022-08-07T10:27:51.237Z,0.70
2022-08-07T10:29:45.821Z,0.70
2022-08-07T10:32:36.515Z,0.50
2022-08-07T10:34:31.942Z,1.00
2022-08-07T10:36:42.251Z,1.10
2022-08-07T10:38:48.045Z,0.70
2022-08-07T10:40:33.609Z,0.80
2022-08-07T10:42:36.309Z,0.70
2022-08-07T10:44:28.665Z,0.73
2022-08-07T10:46:20.546Z,0.70
2022-08-07T10:48:13.795Z,0.77
2022-08-07T10:50:15.165Z,0.70
2022-08-07T10:52:01.574Z,0.60
2022-08-07T10:54:00.225Z,0.50
2022-08-07T10:56:20.650Z,0.40
2022-08-07T10:58:13.902Z,0.80
2022-08-07T11:00:04.937Z,0.70
2022-08-07T11:01:51.944Z,0.57
2022-08-07T11:04:01.295Z,0.60
2022-08-07T11:06:01.700Z,0.45
2022-08-07T11:08:00.835Z,0.40
2022-08-07T11:10:07.828Z,0.38
2022-08-07T11:12:18.909Z,0.43
2022-08-07T11:14:45.763Z,0.50
2022-08-07T11:16:02.874Z,0.35
2022-08-07T11:18:03.345Z,0.52
2022-08-07T11:19:36.311Z,0.50
2022-08-07T11:21:20.732Z,0.77
2022-08-07T11:23:02.795Z,0.90
2022-08-07T11:25:14.868Z,0.55
2022-08-07T11:27:08.163Z,0.57
2022-08-07T11:29:05.698Z,0.65
2022-08-07T11:31:21.636Z,0.82
2022-08-07T11:33:53.345Z,0.45
2022-08-07T11:35:25.053Z,0.73
2022-08-07T11:37:01.276Z,0.80
2022-08-07T11:38:50.625Z,0.50
2022-08-07T11:40:49.661Z,0.63
2022-08-07T11:42:44.016Z,0.50
2022-08-07T11:44:39.675Z,0.68
2022-08-07T11:46:39.989Z,0.60
2022-08-07T11:48:35.944Z,0.70
2022-08-07T11:50:35.155Z,0.40
2022-08-07T11:52:29.374Z,0.80
2022-08-07T11:54:16.810Z,0.90
2022-08-07T11:56:27.028Z,0.50
2022-08-07T11:58:16.200Z,0.60
2022-08-07T12:00:20.241Z,0.80
2022-08-07T12:02:20.525Z,1.33
2022-08-07T12:04:17.676Z,0.68
2022-08-07T12:05:59.421Z,1.13
2022-08-07T12:07:40.475Z,1.33
2022-08-07T12:09:23.744Z,0.88
2022-08-07T12:11:20.981Z,0.80
2022-08-07T12:13:01.259Z,0.70
2022-08-07T12:14:42.868Z,0.60
2022-08-07T12:16:35.712Z,0.80
2022-08-07T12:18:16.058Z,0.60
2022-08-07T12:20:12.861Z,1.00
2022-08-07T12:22:39.401Z,1.13
2022-08-07T12:24:38.140Z,1.00
2022-08-07T12:26:44.817Z,0.82
2022-08-07T12:28:31.352Z,0.70
2022-08-07T12:30:06.073Z,0.80
2022-08-07T12:32:01.867Z,0.70
2022-08-07T12:34:01.471Z,0.60
2022-08-07T12:35:29.301Z,0.70
2022-08-07T12:37:16.952Z,0.80
2022-08-07T12:39:02.352Z,0.95
2022-08-07T12:40:47.815Z,0.85
2022-08-07T12:42:31.821Z,0.57
2022-08-07T12:44:13.107Z,0.80
2022-08-07T12:46:25.909Z,0.80
2022-08-07T12:48:27.657Z,0.68
2022-08-07T12:50:34.469Z,0.77
2022-08-07T12:52:18.125Z,0.50
2022-08-07T12:54:03.357Z,0.70
2022-08-07T12:56:02.890Z,0.52
2022-08-07T12:57:59.173Z,1.23
2022-08-07T12:59:37.122Z,0.40
2022-08-07T13:01:32.123Z,0.63
2022-08-07T13:03:56.247Z,0.60
2022-08-07T13:06:03.428Z,0.70
2022-08-07T13:08:11.958Z,0.50
2022-08-07T13:10:28.391Z,0.98
2022-08-07T13:12:29.685Z,0.60
2022-08-07T13:14:30.180Z,0.47
2022-08-07T13:16:17.624Z,0.80
2022-08-07T13:18:28.407Z,0.60
2022-08-07T13:20:10.188Z,0.80
2022-08-07T13:21:57.323Z,0.32
2022-08-07T13:24:04.497Z,0.55
2022-08-07T13:26:03.807Z,0.57
2022-08-07T13:28:13.735Z,0.57
2022-08-07T13:29:58.359Z,0.40
2022-08-07T13:31:55.075Z,0.63
2022-08-07T13:34:30.796Z,0.70
2022-08-07T13:37:49.690Z,0.70
2022-08-07T13:40:33.924Z,0.60
2022-08-07T13:41:54.939Z,0.43
2022-08-07T13:43:27.840Z,0.63
2022-08-07T13:46:11.610Z,0.60
2022-08-07T13:46:54.801Z,0.53
2022-08-07T13:48:34.629Z,0.57
2022-08-07T13:50:34.858Z,0.60
2022-08-07T13:52:27.227Z,0.50
2022-08-07T13:54:03.356Z,0.70
2022-08-07T13:55:37.052Z,0.68
2022-08-07T13:57:23.899Z,1.00
2022-08-07T13:59:05.577Z,1.10
2022-08-07T14:00:54.025Z,1.38
2022-08-07T14:02:29.582Z,0.70
2022-08-07T14:04:35.345Z,0.60
2022-08-07T14:06:10.082Z,0.57
2022-08-07T14:08:00.722Z,0.80
2022-08-07T14:10:01.564Z,0.60
2022-08-07T14:11:28.867Z,0.75
2022-08-07T14:13:33.574Z,0.82
2022-08-07T14:15:07.738Z,1.00
2022-08-07T14:16:50.074Z,0.80
2022-08-07T14:18:30.469Z,0.75
2022-08-07T14:20:42.554Z,0.70
2022-08-07T14:22:41.318Z,0.88
2022-08-07T14:24:02.416Z,0.50
2022-08-07T14:25:39.568Z,0.60
2022-08-07T14:28:12.973Z,0.70
2022-08-07T14:30:07.995Z,0.68
2022-08-07T14:31:16.576Z,0.50
2022-08-07T14:32:56.382Z,1.75
2022-08-07T14:34:30.503Z,1.25
2022-08-07T14:36:02.820Z,0.70
2022-08-07T14:37:39.235Z,0.60
2022-08-07T14:40:17.514Z,0.60
2022-08-07T14:41:12.353Z,0.82
2022-08-07T14:43:55.665Z,0.60
2022-08-07T14:44:53.774Z,0.73
2022-08-07T14:46:33.321Z,0.90
2022-08-07T14:48:07.090Z,1.05
2022-08-07T14:49:56.771Z,1.27
2022-08-07T14:52:03.905Z,0.98
2022-08-07T14:55:20.288Z,1.35
2022-08-07T14:56:57.641Z,0.60
2022-08-07T14:58:37.557Z,1.00
2022-08-07T15:00:29.713Z,1.55
2022-08-07T15:02:31.664Z,1.30
2022-08-07T15:04:07.685Z,2.90
2022-08-07T15:05:54.644Z,1.65
2022-08-07T15:09:57.429Z,5.65
2022-08-07T15:13:22.537Z,1.40
2022-08-07T15:15:07.361Z,2.33
2022-08-07T15:17:04.977Z,1.88
2022-08-07T15:20:32.904Z,3.55
2022-08-07T15:22:10.145Z,2.40
2022-08-07T15:25:15.911Z,1.13
2022-08-07T15:25:55.572Z,8.85
2022-08-07T15:27:30.002Z,9.82
2022-08-07T15:30:04.694Z,4.30
2022-08-07T15:31:05.678Z,2.30
2022-08-07T15:34:50.725Z,1.30
2022-08-07T15:37:03.357Z,1.30
2022-08-07T15:40:34.609Z,1.50
2022-08-07T15:42:43.668Z,1.33
2022-08-07T15:44:04.377Z,0.90
2022-08-07T15:45:56.562Z,0.93
2022-08-07T15:48:00.032Z,0.80
2022-08-07T15:50:03.964Z,0.80
2022-08-07T15:51:22.600Z,1.05
2022-08-07T15:53:25.161Z,1.38
2022-08-07T15:55:19.953Z,0.80
2022-08-07T15:56:59.397Z,1.13
2022-08-07T15:58:52.116Z,1.02
2022-08-07T16:00:33.845Z,0.82
2022-08-07T16:02:07.542Z,0.90
2022-08-07T16:03:47.136Z,0.77
2022-08-07T16:05:30.946Z,1.05
2022-08-07T16:08:33.647Z,4.20
2022-08-07T16:09:02.650Z,2.00
2022-08-07T16:10:36.757Z,1.77
2022-08-07T16:12:12.158Z,1.60
2022-08-07T16:14:03.016Z,0.98
2022-08-07T16:15:57.284Z,0.73
2022-08-07T16:18:02.993Z,0.90
2022-08-07T16:19:59.526Z,0.80
2022-08-07T16:22:33.434Z,1.02
2022-08-07T16:24:52.679Z,0.70
2022-08-07T16:26:31.216Z,1.17
2022-08-07T16:30:06.345Z,2.60
2022-08-07T16:31:50.051Z,1.10
2022-08-07T16:34:01.921Z,1.55
2022-08-07T16:35:51.841Z,1.60
2022-08-07T16:38:09.782Z,4.32
2022-08-07T16:39:48.872Z,3.10
2022-08-07T16:41:59.452Z,3.20
2022-08-07T16:44:03.998Z,5.07
2022-08-07T16:46:21.374Z,5.70
2022-08-07T16:50:28.729Z,3.60
2022-08-07T16:52:51.328Z,6.40
2022-08-07T16:54:34.913Z,4.35
2022-08-07T16:56:39.821Z,3.35
2022-08-07T16:58:20.345Z,1.35
2022-08-07T17:00:02.422Z,2.75
2022-08-07T17:01:57.257Z,2.10
2022-08-07T17:03:59.724Z,3.10
2022-08-07T17:06:28.772Z,3.28
2022-08-07T17:07:55.613Z,1.83
2022-08-07T17:10:08.442Z,3.80
2022-08-07T17:12:04.403Z,2.40
2022-08-07T17:14:18.493Z,1.48
2022-08-07T17:16:10.284Z,1.13
2022-08-07T17:18:03.667Z,1.55
2022-08-07T17:20:01.757Z,4.43
2022-08-07T17:21:50.646Z,1.80
2022-08-07T17:23:32.061Z,3.08
2022-08-07T17:25:15.225Z,1.77
2022-08-07T17:27:02.637Z,1.10
2022-08-07T17:28:56.055Z,0.90
2022-08-07T17:30:58.403Z,1.05
2022-08-07T17:32:36.815Z,2.75
2022-08-07T17:34:34.548Z,2.50
2022-08-07T17:36:31.577Z,1.60
2022-08-07T17:38:33.637Z,2.50
2022-08-07T17:40:11.392Z,1.48
2022-08-07T17:42:02.086Z,1.25
2022-08-07T17:44:02.776Z,1.25
2022-08-07T17:45:42.141Z,0.88
2022-08-07T17:47:38.104Z,0.98
2022-08-07T17:49:22.942Z,0.93
2022-08-07T17:51:59.705Z,0.95
2022-08-07T17:54:00.795Z,1.27
2022-08-07T17:56:00.834Z,1.38
2022-08-07T17:57:56.657Z,1.70
2022-08-07T17:59:39.587Z,1.60
2022-08-07T18:01:21.004Z,1.23
2022-08-07T18:02:57.650Z,1.02
2022-08-07T18:04:36.765Z,1.02
2022-08-07T18:06:16.808Z,1.08
2022-08-07T18:08:24.437Z,1.20
2022-08-07T18:10:06.388Z,1.23
2022-08-07T18:12:17.624Z,1.00
2022-08-07T18:13:49.951Z,1.80
2022-08-07T18:15:33.031Z,1.17
2022-08-07T18:18:46.956Z,1.45
2022-08-07T18:21:02.364Z,1.50
2022-08-07T18:21:53.399Z,1.70
2022-08-07T18:23:50.832Z,1.58
2022-08-07T18:25:40.410Z,1.70
2022-08-07T18:27:17.372Z,1.35
2022-08-07T18:28:57.749Z,1.63
2022-08-07T18:30:39.472Z,1.45
2022-08-07T18:32:46.393Z,1.45
2022-08-07T18:34:33.829Z,2.17
2022-08-07T18:36:39.128Z,2.20
2022-08-07T18:38:58.641Z,1.60
2022-08-07T18:40:42.701Z,1.90
2022-08-07T18:42:46.917Z,1.10
2022-08-07T18:45:43.689Z,1.50
2022-08-07T18:47:00.032Z,1.80
2022-08-07T18:50:18.927Z,1.45
2022-08-07T18:52:38.657Z,1.95
2022-08-07T18:53:39.515Z,1.42
2022-08-07T18:55:40.677Z,1.73
2022-08-07T18:57:37.033Z,1.77
2022-08-07T18:59:59.352Z,1.67
2022-08-07T19:02:18.921Z,1.80
2022-08-07T19:04:27.073Z,1.70
2022-08-07T19:06:20.486Z,1.75
2022-08-07T19:08:30.000Z,1.70
2022-08-07T19:10:12.103Z,1.80
2022-08-07T19:12:15.726Z,1.88
2022-08-07T19:14:17.136Z,1.98
2022-08-07T19:16:43.200Z,2.42
2022-08-07T19:18:34.910Z,2.03
2022-08-07T19:20:29.314Z,3.95
2022-08-07T19:22:31.423Z,3.33
2022-08-07T19:24:11.415Z,2.00
2022-08-07T19:26:24.687Z,1.80
2022-08-07T19:28:58.035Z,1.70
2022-08-07T19:31:05.815Z,2.00
2022-08-07T19:32:07.986Z,1.70
2022-08-07T19:33:44.941Z,1.58
2022-08-07T19:35:33.098Z,1.27
2022-08-07T19:37:10.259Z,1.73
2022-08-07T19:38:54.480Z,3.20
2022-08-07T19:40:31.308Z,2.05
2022-08-07T19:42:22.325Z,1.80
2022-08-07T19:44:02.928Z,1.90
2022-08-07T19:46:07.838Z,1.60
2022-08-07T19:47:43.256Z,1.50
2022-08-07T19:49:58.454Z,1.83
2022-08-07T19:51:19.298Z,1.75
2022-08-07T19:52:58.474Z,1.85
2022-08-07T19:54:45.046Z,1.35
2022-08-07T19:57:59.878Z,1.35
2022-08-07T19:58:28.392Z,1.40
2022-08-07T20:00:12.502Z,1.63
2022-08-07T20:02:02.207Z,1.77
2022-08-07T20:03:40.116Z,1.38
2022-08-07T20:05:17.272Z,1.60
2022-08-07T20:06:57.314Z,1.52
2022-08-07T20:08:33.667Z,1.50
2022-08-07T20:10:36.069Z,1.23
2022-08-07T20:12:31.281Z,1.67
2022-08-07T20:13:53.938Z,1.30
2022-08-07T20:15:33.073Z,1.30
2022-08-07T20:17:09.782Z,1.25
2022-08-07T20:18:43.452Z,1.20
2022-08-07T20:20:22.670Z,1.13
2022-08-07T20:21:58.487Z,1.35
2022-08-07T20:23:42.897Z,1.42
2022-08-07T20:25:19.849Z,1.47
2022-08-07T20:26:55.695Z,1.17
2022-08-07T20:28:30.896Z,1.20
2022-08-07T20:30:07.635Z,1.45
2022-08-07T20:31:45.218Z,1.13
2022-08-07T20:33:36.986Z,1.17
2022-08-07T20:35:16.004Z,1.70
2022-08-07T20:36:51.726Z,1.27
2022-08-07T20:38:24.586Z,1.20
2022-08-07T20:40:04.382Z,1.10
2022-08-07T20:41:40.426Z,1.20
2022-08-07T20:43:19.339Z,1.20
2022-08-07T20:44:52.257Z,1.30
2022-08-07T20:46:34.532Z,1.23
2022-08-07T20:48:28.576Z,1.20
2022-08-07T20:50:02.935Z,1.33
2022-08-07T20:51:35.761Z,1.58
2022-08-07T20:53:13.622Z,1.23
2022-08-07T20:54:53.742Z,0.95
2022-08-07T20:56:28.519Z,1.08
2022-08-07T20:58:03.639Z,1.52
2022-08-07T21:00:07.974Z,1.27
2022-08-07T21:01:45.984Z,1.20
2022-08-07T21:03:27.558Z,1.67
2022-08-07T21:05:01.356Z,1.40
2022-08-07T21:06:36.963Z,1.40
2022-08-07T21:08:14.819Z,1.42
2022-08-07T21:09:53.175Z,1.20
2022-08-07T21:11:50.015Z,1.35
2022-08-07T21:13:57.936Z,1.00
2022-08-07T21:15:22.544Z,1.05
2022-08-07T21:18:02.257Z,1.15
2022-08-07T21:19:10.305Z,1.17
2022-08-07T21:20:56.086Z,1.00
2022-08-07T21:22:30.736Z,0.95
2022-08-07T21:24:17.592Z,1.13
2022-08-07T21:26:09.579Z,1.27
2022-08-07T21:27:47.777Z,1.13
2022-08-07T21:29:55.084Z,1.48
2022-08-07T21:32:42.305Z,0.88
2022-08-07T21:33:42.113Z,1.27
2022-08-07T21:35:16.688Z,1.05
2022-08-07T21:37:14.652Z,1.33
2022-08-07T21:39:46.279Z,1.27
2022-08-07T21:41:25.201Z,1.38
2022-08-07T21:43:06.055Z,1.02
2022-08-07T21:46:08.365Z,0.85
2022-08-07T21:47:17.491Z,1.40
2022-08-07T21:49:14.426Z,1.38
2022-08-07T21:50:52.069Z,1.08
2022-08-07T21:52:40.842Z,1.27
2022-08-07T21:54:34.193Z,1.13
2022-08-07T21:56:49.025Z,1.58
2022-08-07T21:58:32.843Z,1.27
2022-08-07T22:00:22.964Z,1.45
2022-08-07T22:02:07.647Z,1.20
2022-08-07T22:03:51.776Z,1.40
2022-08-07T22:05:44.178Z,1.33
2022-08-07T22:07:22.816Z,1.63
2022-08-07T22:09:06.897Z,1.45
2022-08-07T22:10:42.330Z,1.45
2022-08-07T22:12:27.924Z,1.55
2022-08-07T22:14:15.255Z,1.35
2022-08-07T22:16:42.654Z,1.27
2022-08-07T22:18:10.023Z,1.70
2022-08-07T22:19:57.154Z,2.17
2022-08-07T22:22:04.911Z,1.48
2022-08-07T22:23:57.086Z,1.60
2022-08-07T22:25:44.206Z,1.52
2022-08-07T22:27:21.353Z,1.73
2022-08-07T22:29:13.957Z,1.40
2022-08-07T22:30:55.320Z,1.50
2022-08-07T22:32:42.311Z,1.80
2022-08-07T22:34:28.893Z,1.60
2022-08-07T22:36:28.173Z,1.60
2022-08-07T22:38:24.125Z,1.70
2022-08-07T22:40:18.738Z,2.42
2022-08-07T22:42:04.201Z,1.67
2022-08-07T22:43:56.447Z,2.17
2022-08-07T22:46:42.487Z,2.03
2022-08-07T22:48:13.673Z,1.70
2022-08-07T22:50:04.485Z,1.95
2022-08-07T22:52:07.127Z,2.00
2022-08-07T22:54:08.087Z,1.50
2022-08-07T22:56:19.354Z,1.65
2022-08-07T22:58:15.193Z,2.00
2022-08-07T23:00:06.251Z,2.42
2022-08-07T23:01:58.987Z,3.22
2022-08-07T23:03:57.912Z,2.28
2022-08-07T23:06:10.127Z,2.28
2022-08-07T23:08:24.247Z,2.15
2022-08-07T23:10:37.796Z,1.58
2022-08-07T23:12:34.054Z,1.88
2022-08-07T23:14:25.114Z,2.10
2022-08-07T23:16:43.287Z,2.22
2022-08-07T23:18:16.343Z,1.90
2022-08-07T23:20:51.055Z,2.33
2022-08-07T23:22:58.769Z,2.05
2022-08-07T23:24:45.722Z,2.17
2022-08-07T23:26:23.431Z,2.33
2022-08-07T23:28:28.619Z,2.25
2022-08-07T23:30:37.278Z,2.10
2022-08-07T23:34:23.957Z,2.17
2022-08-07T23:34:39.469Z,2.35
2022-08-07T23:36:36.792Z,2.08
2022-08-07T23:38:42.783Z,2.17
2022-08-07T23:40:27.748Z,2.53
2022-08-07T23:42:30.521Z,2.50
2022-08-07T23:44:11.573Z,2.38
2022-08-07T23:46:12.327Z,2.17
2022-08-07T23:48:06.678Z,2.40
2022-08-07T23:49:50.117Z,2.58
2022-08-07T23:52:58.419Z,2.92
2022-08-07T23:53:49.964Z,2.58
2022-08-07T23:55:53.304Z,3.00
2022-08-07T23:57:59.175Z,2.60
